sensor_id;sensor_type;location;lat;lon;timestamp;temperature;humidity
64561;DHT22;50960;46.838;16.838;2022-12-07T04:02:33;2.80;99.90
64561;DHT22;50960;46.838;16.838;2022-12-07T04:05:00;2.90;99.90
64561;DHT22;50960;46.838;16.838;2022-12-07T04:07:26;2.90;99.90
64561;DHT22;50960;46.838;16.838;2022-12-07T04:09:53;2.90;99.90
64561;DHT22;50960;46.838;16.838;2022-12-07T04:12:21;2.80;99.90
64561;DHT22;50960;46.838;16.838;2022-12-07T04:14:48;2.80;99.90
64561;DHT22;50960;46.838;16.838;2022-12-07T04:17:15;2.80;99.90
64561;DHT22;50960;46.838;16.838;2022-12-07T04:19:41;2.90;99.90
64561;DHT22;50960;46.838;16.838;2022-12-07T04:22:08;2.90;99.90
64561;DHT22;50960;46.838;16.838;2022-12-07T04:24:34;3.00;99.90
64561;DHT22;50960;46.838;16.838;2022-12-07T04:27:01;3.00;99.90
64561;DHT22;50960;46.838;16.838;2022-12-07T04:29:27;3.00;99.90
64561;DHT22;50960;46.838;16.838;2022-12-07T04:31:53;2.50;99.90
64561;DHT22;50960;46.838;16.838;2022-12-07T04:34:20;2.60;99.90
64561;DHT22;50960;46.838;16.838;2022-12-07T04:36:47;2.80;99.90
64561;DHT22;50960;46.838;16.838;2022-12-07T04:39:25;2.80;99.90
64561;DHT22;50960;46.838;16.838;2022-12-07T04:41:52;2.80;99.90
64561;DHT22;50960;46.838;16.838;2022-12-07T04:44:19;2.70;99.90
64561;DHT22;50960;46.838;16.838;2022-12-07T04:46:46;2.50;99.90
64561;DHT22;50960;46.838;16.838;2022-12-07T04:49:14;2.60;99.90
64561;DHT22;50960;46.838;16.838;2022-12-07T04:51:41;2.50;99.90
64561;DHT22;50960;46.838;16.838;2022-12-07T04:54:07;2.50;99.90
64561;DHT22;50960;46.838;16.838;2022-12-07T04:56:34;2.60;99.90
64561;DHT22;50960;46.838;16.838;2022-12-07T04:59:01;2.60;99.90
64561;DHT22;50960;46.838;16.838;2022-12-07T05:01:28;2.60;99.90
64561;DHT22;50960;46.838;16.838;2022-12-07T05:03:55;2.50;99.90
64561;DHT22;50960;46.838;16.838;2022-12-07T05:06:21;2.30;99.90
64561;DHT22;50960;46.838;16.838;2022-12-07T05:08:47;2.40;99.90
64561;DHT22;50960;46.838;16.838;2022-12-07T05:11:14;2.50;99.90
64561;DHT22;50960;46.838;16.838;2022-12-07T05:14:02;2.80;99.90
64561;DHT22;50960;46.838;16.838;2022-12-07T05:16:29;2.90;99.90
64561;DHT22;50960;46.838;16.838;2022-12-07T05:18:55;2.80;99.90
64561;DHT22;50960;46.838;16.838;2022-12-07T05:21:21;2.90;99.90
64561;DHT22;50960;46.838;16.838;2022-12-07T05:23:48;3.00;99.90
64561;DHT22;50960;46.838;16.838;2022-12-07T05:26:14;3.10;99.90
64561;DHT22;50960;46.838;16.838;2022-12-07T05:28:41;2.70;99.90
64561;DHT22;50960;46.838;16.838;2022-12-07T05:31:07;2.70;99.90
64561;DHT22;50960;46.838;16.838;2022-12-07T05:33:33;2.80;99.90
64561;DHT22;50960;46.838;16.838;2022-12-07T05:35:59;2.90;99.90
64561;DHT22;50960;46.838;16.838;2022-12-07T05:38:32;2.90;99.90
64561;DHT22;50960;46.838;16.838;2022-12-07T05:41:02;3.00;99.90
64561;DHT22;50960;46.838;16.838;2022-12-07T05:43:30;3.10;99.90
64561;DHT22;50960;46.838;16.838;2022-12-07T05:45:57;3.20;99.90
64561;DHT22;50960;46.838;16.838;2022-12-07T05:48:24;3.30;99.90
64561;DHT22;50960;46.838;16.838;2022-12-07T05:50:51;3.40;99.90
64561;DHT22;50960;46.838;16.838;2022-12-07T05:53:18;3.20;99.90
64561;DHT22;50960;46.838;16.838;2022-12-07T05:55:44;3.30;99.90
64561;DHT22;50960;46.838;16.838;2022-12-07T05:58:11;3.30;99.90
64561;DHT22;50960;46.838;16.838;2022-12-07T06:01:06;3.40;99.90
64561;DHT22;50960;46.838;16.838;2022-12-07T06:03:32;3.40;99.90
64561;DHT22;50960;46.838;16.838;2022-12-07T06:05:59;3.30;99.90
64561;DHT22;50960;46.838;16.838;2022-12-07T14:42:34;6.10;99.30
64561;DHT22;50960;46.838;16.838;2022-12-07T14:45:00;5.90;99.90
64561;DHT22;50960;46.838;16.838;2022-12-07T14:47:27;5.70;99.90
64561;DHT22;50960;46.838;16.838;2022-12-07T14:49:53;5.70;99.90
64561;DHT22;50960;46.838;16.838;2022-12-07T14:52:26;5.70;99.90
64561;DHT22;50960;46.838;16.838;2022-12-07T14:54:52;5.50;99.90
64561;DHT22;50960;46.838;16.838;2022-12-07T14:57:18;5.50;99.90
64561;DHT22;50960;46.838;16.838;2022-12-07T14:59:45;5.50;99.90
64561;DHT22;50960;46.838;16.838;2022-12-07T15:02:13;5.50;99.90
64561;DHT22;50960;46.838;16.838;2022-12-07T15:04:41;5.40;99.90
64561;DHT22;50960;46.838;16.838;2022-12-07T15:07:18;5.30;99.90
64561;DHT22;50960;46.838;16.838;2022-12-07T15:09:46;5.30;99.90
64561;DHT22;50960;46.838;16.838;2022-12-07T15:12:13;5.20;99.90
64561;DHT22;50960;46.838;16.838;2022-12-07T15:14:40;5.10;99.90
64561;DHT22;50960;46.838;16.838;2022-12-07T15:17:11;5.10;99.90
64561;DHT22;50960;46.838;16.838;2022-12-07T15:19:39;5.10;99.90
64561;DHT22;50960;46.838;16.838;2022-12-07T15:22:05;5.10;99.90
64561;DHT22;50960;46.838;16.838;2022-12-07T15:24:33;5.10;99.90
64561;DHT22;50960;46.838;16.838;2022-12-07T15:27:00;5.10;99.90
64561;DHT22;50960;46.838;16.838;2022-12-07T15:29:26;5.00;99.90
64561;DHT22;50960;46.838;16.838;2022-12-07T15:31:53;4.90;99.90
64561;DHT22;50960;46.838;16.838;2022-12-07T15:34:20;4.90;99.90
64561;DHT22;50960;46.838;16.838;2022-12-07T15:36:46;4.90;99.90
64561;DHT22;50960;46.838;16.838;2022-12-07T15:39:12;4.90;99.90
64561;DHT22;50960;46.838;16.838;2022-12-07T15:41:39;4.70;99.90
64561;DHT22;50960;46.838;16.838;2022-12-07T15:44:05;4.70;99.90
64561;DHT22;50960;46.838;16.838;2022-12-07T15:46:50;4.60;99.90
64561;DHT22;50960;46.838;16.838;2022-12-07T15:49:18;4.50;99.90
64561;DHT22;50960;46.838;16.838;2022-12-07T15:51:45;4.60;99.90
64561;DHT22;50960;46.838;16.838;2022-12-07T15:54:20;4.40;99.90
64561;DHT22;50960;46.838;16.838;2022-12-07T15:56:47;4.40;99.90
64561;DHT22;50960;46.838;16.838;2022-12-07T15:59:14;4.40;99.90
64561;DHT22;50960;46.838;16.838;2022-12-07T16:01:41;4.30;99.90
64561;DHT22;50960;46.838;16.838;2022-12-07T16:04:07;4.40;99.90
64561;DHT22;50960;46.838;16.838;2022-12-07T16:06:34;4.30;99.90
64561;DHT22;50960;46.838;16.838;2022-12-07T16:09:01;4.30;99.90
64561;DHT22;50960;46.838;16.838;2022-12-07T16:11:27;4.20;99.90
64561;DHT22;50960;46.838;16.838;2022-12-07T16:13:54;4.30;99.90
64561;DHT22;50960;46.838;16.838;2022-12-07T16:16:21;4.30;99.90
64561;DHT22;50960;46.838;16.838;2022-12-07T16:18:50;4.30;99.90
64561;DHT22;50960;46.838;16.838;2022-12-07T16:21:17;4.30;99.90
64561;DHT22;50960;46.838;16.838;2022-12-07T16:23:44;4.40;99.90
64561;DHT22;50960;46.838;16.838;2022-12-07T16:26:16;4.50;99.90
64561;DHT22;50960;46.838;16.838;2022-12-07T16:28:43;4.50;99.90
64561;DHT22;50960;46.838;16.838;2022-12-07T16:31:13;4.50;99.90
64561;DHT22;50960;46.838;16.838;2022-12-07T16:33:41;4.60;99.90
64561;DHT22;50960;46.838;16.838;2022-12-07T16:36:09;4.60;99.90
64561;DHT22;50960;46.838;16.838;2022-12-07T16:38:37;4.60;99.90
64561;DHT22;50960;46.838;16.838;2022-12-07T16:41:05;4.70;99.90
64561;DHT22;50960;46.838;16.838;2022-12-07T16:43:32;4.70;99.90
64561;DHT22;50960;46.838;16.838;2022-12-07T16:45:59;4.70;99.90
64561;DHT22;50960;46.838;16.838;2022-12-07T16:48:26;4.80;99.90
64561;DHT22;50960;46.838;16.838;2022-12-07T16:50:52;4.80;99.90
64561;DHT22;50960;46.838;16.838;2022-12-07T16:53:21;4.90;99.90
64561;DHT22;50960;46.838;16.838;2022-12-07T16:55:47;4.70;99.90
64561;DHT22;50960;46.838;16.838;2022-12-07T16:58:15;4.70;99.90
64561;DHT22;50960;46.838;16.838;2022-12-07T17:00:43;4.70;99.90
64561;DHT22;50960;46.838;16.838;2022-12-07T17:03:09;4.80;99.90
64561;DHT22;50960;46.838;16.838;2022-12-07T17:05:41;4.80;99.90
64561;DHT22;50960;46.838;16.838;2022-12-07T17:08:08;4.70;99.90
64561;DHT22;50960;46.838;16.838;2022-12-07T17:10:37;4.70;99.90
64561;DHT22;50960;46.838;16.838;2022-12-07T17:13:04;4.70;99.90
64561;DHT22;50960;46.838;16.838;2022-12-07T17:16:05;4.60;99.90
64561;DHT22;50960;46.838;16.838;2022-12-07T17:18:33;4.30;99.90
64561;DHT22;50960;46.838;16.838;2022-12-07T17:21:05;4.20;99.90
64561;DHT22;50960;46.838;16.838;2022-12-07T17:23:32;4.50;99.90
64561;DHT22;50960;46.838;16.838;2022-12-07T17:26:11;4.50;99.90
64561;DHT22;50960;46.838;16.838;2022-12-07T17:28:38;4.60;99.90
64561;DHT22;50960;46.838;16.838;2022-12-07T17:31:06;4.50;99.90
64561;DHT22;50960;46.838;16.838;2022-12-07T17:33:33;4.50;99.90
64561;DHT22;50960;46.838;16.838;2022-12-07T17:36:00;4.70;99.90
64561;DHT22;50960;46.838;16.838;2022-12-07T17:38:30;4.70;99.90
64561;DHT22;50960;46.838;16.838;2022-12-07T17:40:56;4.60;99.90
64561;DHT22;50960;46.838;16.838;2022-12-07T17:43:22;4.70;99.90
64561;DHT22;50960;46.838;16.838;2022-12-07T17:45:49;4.70;99.90
64561;DHT22;50960;46.838;16.838;2022-12-07T17:48:15;4.70;99.90
64561;DHT22;50960;46.838;16.838;2022-12-07T17:50:41;4.50;99.90
64561;DHT22;50960;46.838;16.838;2022-12-07T17:53:26;4.40;99.90
64561;DHT22;50960;46.838;16.838;2022-12-07T17:55:55;4.50;99.90
64561;DHT22;50960;46.838;16.838;2022-12-07T17:58:21;4.70;99.90
64561;DHT22;50960;46.838;16.838;2022-12-07T18:00:47;4.70;99.90
64561;DHT22;50960;46.838;16.838;2022-12-07T18:03:14;4.80;99.90
64561;DHT22;50960;46.838;16.838;2022-12-07T18:05:42;4.80;99.90
64561;DHT22;50960;46.838;16.838;2022-12-07T18:08:10;4.60;99.90
64561;DHT22;50960;46.838;16.838;2022-12-07T18:10:36;4.60;99.90
64561;DHT22;50960;46.838;16.838;2022-12-07T18:13:02;4.50;99.90
64561;DHT22;50960;46.838;16.838;2022-12-07T18:15:47;4.50;99.90
64561;DHT22;50960;46.838;16.838;2022-12-07T18:18:20;4.60;99.90
64561;DHT22;50960;46.838;16.838;2022-12-07T18:20:46;4.50;99.90
64561;DHT22;50960;46.838;16.838;2022-12-07T18:23:12;4.50;99.90
64561;DHT22;50960;46.838;16.838;2022-12-07T18:25:39;4.40;99.90
64561;DHT22;50960;46.838;16.838;2022-12-07T18:28:08;4.50;99.90
64561;DHT22;50960;46.838;16.838;2022-12-07T18:30:34;4.40;99.90
64561;DHT22;50960;46.838;16.838;2022-12-07T18:33:00;4.40;99.90
64561;DHT22;50960;46.838;16.838;2022-12-07T18:35:27;4.50;99.90
64561;DHT22;50960;46.838;16.838;2022-12-07T18:37:53;4.50;99.90
64561;DHT22;50960;46.838;16.838;2022-12-07T18:40:19;4.60;99.90
64561;DHT22;50960;46.838;16.838;2022-12-07T18:42:45;4.60;99.90
64561;DHT22;50960;46.838;16.838;2022-12-07T18:45:11;4.60;99.90
64561;DHT22;50960;46.838;16.838;2022-12-07T18:47:38;4.70;99.90
64561;DHT22;50960;46.838;16.838;2022-12-07T18:50:04;4.70;99.90
64561;DHT22;50960;46.838;16.838;2022-12-07T18:52:31;4.60;99.90
64561;DHT22;50960;46.838;16.838;2022-12-07T18:54:57;4.60;99.90
64561;DHT22;50960;46.838;16.838;2022-12-07T18:57:23;4.50;99.90
64561;DHT22;50960;46.838;16.838;2022-12-07T18:59:50;4.50;99.90
64561;DHT22;50960;46.838;16.838;2022-12-07T19:02:16;4.50;99.90
64561;DHT22;50960;46.838;16.838;2022-12-07T19:04:44;4.30;99.90
64561;DHT22;50960;46.838;16.838;2022-12-07T19:07:10;4.40;99.90
64561;DHT22;50960;46.838;16.838;2022-12-07T19:09:37;4.30;99.90
64561;DHT22;50960;46.838;16.838;2022-12-07T19:12:03;4.30;99.90
64561;DHT22;50960;46.838;16.838;2022-12-07T19:14:35;4.50;99.90
64561;DHT22;50960;46.838;16.838;2022-12-07T19:17:07;4.60;99.90
64561;DHT22;50960;46.838;16.838;2022-12-07T19:19:35;4.70;99.90
64561;DHT22;50960;46.838;16.838;2022-12-07T19:22:02;4.50;99.90
64561;DHT22;50960;46.838;16.838;2022-12-07T19:24:29;4.40;99.90
64561;DHT22;50960;46.838;16.838;2022-12-07T19:26:56;4.20;99.90
64561;DHT22;50960;46.838;16.838;2022-12-07T19:29:22;4.00;99.90
64561;DHT22;50960;46.838;16.838;2022-12-07T19:31:48;3.80;99.90
64561;DHT22;50960;46.838;16.838;2022-12-07T19:34:16;3.80;99.90
64561;DHT22;50960;46.838;16.838;2022-12-07T19:36:43;3.80;99.90
64561;DHT22;50960;46.838;16.838;2022-12-07T19:39:09;3.80;99.90
64561;DHT22;50960;46.838;16.838;2022-12-07T19:41:36;3.80;99.90
64561;DHT22;50960;46.838;16.838;2022-12-07T19:44:18;3.90;99.90
64561;DHT22;50960;46.838;16.838;2022-12-07T19:46:47;3.90;99.90
64561;DHT22;50960;46.838;16.838;2022-12-07T19:49:15;3.80;99.90
64561;DHT22;50960;46.838;16.838;2022-12-07T19:51:43;3.70;99.90
64561;DHT22;50960;46.838;16.838;2022-12-07T19:54:11;3.60;99.90
64561;DHT22;50960;46.838;16.838;2022-12-07T19:56:40;3.60;99.90
64561;DHT22;50960;46.838;16.838;2022-12-07T19:59:06;3.50;99.90
64561;DHT22;50960;46.838;16.838;2022-12-07T20:01:33;3.40;99.90
64561;DHT22;50960;46.838;16.838;2022-12-07T20:03:59;3.40;99.90
64561;DHT22;50960;46.838;16.838;2022-12-07T20:06:26;3.30;99.90
64561;DHT22;50960;46.838;16.838;2022-12-07T20:08:52;3.40;99.90
64561;DHT22;50960;46.838;16.838;2022-12-07T20:11:19;3.20;99.90
64561;DHT22;50960;46.838;16.838;2022-12-07T20:14:09;3.20;99.90
64561;DHT22;50960;46.838;16.838;2022-12-07T20:16:38;3.10;99.90
64561;DHT22;50960;46.838;16.838;2022-12-07T20:19:08;3.10;99.90
64561;DHT22;50960;46.838;16.838;2022-12-07T20:21:37;3.20;99.90
64561;DHT22;50960;46.838;16.838;2022-12-07T20:24:05;3.20;99.90
64561;DHT22;50960;46.838;16.838;2022-12-07T20:26:36;3.30;99.90
64561;DHT22;50960;46.838;16.838;2022-12-07T20:29:06;3.30;99.90
64561;DHT22;50960;46.838;16.838;2022-12-07T20:31:33;3.30;99.90
64561;DHT22;50960;46.838;16.838;2022-12-07T20:34:00;3.30;99.90
64561;DHT22;50960;46.838;16.838;2022-12-07T20:36:27;3.30;99.90
64561;DHT22;50960;46.838;16.838;2022-12-07T20:38:53;3.30;99.90
64561;DHT22;50960;46.838;16.838;2022-12-07T20:41:20;3.10;99.90
64561;DHT22;50960;46.838;16.838;2022-12-07T20:44:05;3.00;99.90
64561;DHT22;50960;46.838;16.838;2022-12-07T20:46:31;3.20;99.90
64561;DHT22;50960;46.838;16.838;2022-12-07T20:48:58;3.20;99.90
64561;DHT22;50960;46.838;16.838;2022-12-07T20:51:27;3.00;99.90
64561;DHT22;50960;46.838;16.838;2022-12-07T20:53:54;2.90;99.90
64561;DHT22;50960;46.838;16.838;2022-12-07T20:56:28;3.00;99.90
64561;DHT22;50960;46.838;16.838;2022-12-07T20:58:56;2.90;99.90
64561;DHT22;50960;46.838;16.838;2022-12-07T21:01:22;2.80;99.90
64561;DHT22;50960;46.838;16.838;2022-12-07T21:03:49;2.80;99.90
64561;DHT22;50960;46.838;16.838;2022-12-07T21:06:19;2.90;99.90
64561;DHT22;50960;46.838;16.838;2022-12-07T21:08:49;2.90;99.90
64561;DHT22;50960;46.838;16.838;2022-12-07T21:11:17;2.90;99.90
64561;DHT22;50960;46.838;16.838;2022-12-07T21:13:45;3.00;99.90
64561;DHT22;50960;46.838;16.838;2022-12-07T21:16:15;3.00;99.90
64561;DHT22;50960;46.838;16.838;2022-12-07T21:18:42;3.00;99.90
64561;DHT22;50960;46.838;16.838;2022-12-07T21:21:11;3.00;99.90
64561;DHT22;50960;46.838;16.838;2022-12-07T21:23:37;3.10;99.90
64561;DHT22;50960;46.838;16.838;2022-12-07T21:26:16;3.10;99.90
64561;DHT22;50960;46.838;16.838;2022-12-07T21:28:42;3.20;99.90
64561;DHT22;50960;46.838;16.838;2022-12-07T21:31:09;3.10;99.90
64561;DHT22;50960;46.838;16.838;2022-12-07T21:33:35;3.20;99.90
64561;DHT22;50960;46.838;16.838;2022-12-07T21:36:03;3.20;99.90
64561;DHT22;50960;46.838;16.838;2022-12-07T21:38:30;3.10;99.90
64561;DHT22;50960;46.838;16.838;2022-12-07T21:40:56;3.30;99.90
64561;DHT22;50960;46.838;16.838;2022-12-07T21:43:23;3.30;99.90
64561;DHT22;50960;46.838;16.838;2022-12-07T21:45:51;3.20;99.90
64561;DHT22;50960;46.838;16.838;2022-12-07T21:48:17;3.30;99.90
64561;DHT22;50960;46.838;16.838;2022-12-07T21:50:44;3.20;99.90
64561;DHT22;50960;46.838;16.838;2022-12-07T21:53:10;3.30;99.90
64561;DHT22;50960;46.838;16.838;2022-12-07T21:55:43;3.30;99.90
64561;DHT22;50960;46.838;16.838;2022-12-07T21:58:10;3.30;99.90
64561;DHT22;50960;46.838;16.838;2022-12-07T22:00:37;3.10;99.90
64561;DHT22;50960;46.838;16.838;2022-12-07T22:03:03;3.10;99.90
64561;DHT22;50960;46.838;16.838;2022-12-07T22:05:29;3.20;99.90
